createdAt,value
2022-11-28T08:43:17.192Z,9.77
2022-11-28T08:58:19.088Z,10.83
2022-11-28T09:29:46.541Z,11.27
2022-11-28T09:44:57.121Z,12.90
2022-11-28T09:59:59.103Z,11.10
2022-11-28T10:15:10.754Z,11.03
2022-11-28T10:30:24.015Z,11.33
2022-11-28T10:45:29.147Z,13.30
2022-11-28T11:00:31.732Z,12.73
2022-11-28T11:15:39.360Z,13.67
2022-11-28T11:30:43.149Z,13.37
2022-11-28T11:45:49.725Z,13.97
2022-11-28T12:00:57.997Z,14.20
2022-11-28T12:16:30.811Z,15.67
2022-11-28T12:32:01.720Z,20.13
2022-11-28T12:47:15.516Z,15.03
2022-11-28T13:02:36.598Z,14.10
2022-11-28T13:17:54.191Z,19.43
2022-11-28T13:33:36.997Z,18.03
2022-11-28T13:49:12.732Z,17.07
2022-11-28T14:04:15.771Z,16.43
2022-11-28T14:19:40.508Z,16.03
2022-11-28T14:34:46.800Z,15.33
2022-11-28T14:49:49.612Z,16.03
2022-11-28T15:05:28.230Z,15.80
2022-11-28T15:21:43.637Z,14.53
2022-11-28T15:36:12.887Z,17.43
2022-11-28T15:51:35.871Z,16.97
2022-11-28T16:06:50.961Z,18.83
2022-11-28T16:22:01.699Z,17.07
2022-11-28T16:37:11.843Z,21.83
2022-11-28T16:52:33.922Z,19.97
2022-11-28T17:07:35.970Z,21.30
2022-11-28T17:22:41.571Z,19.40
2022-11-28T17:37:45.093Z,22.23
2022-11-28T17:52:47.012Z,19.60
2022-11-28T18:07:49.788Z,23.63
2022-11-28T18:22:54.712Z,22.43
2022-11-28T18:37:56.606Z,19.90
2022-11-28T18:52:58.730Z,23.33
2022-11-28T19:08:00.729Z,18.27
2022-11-28T19:23:02.897Z,19.70
2022-11-28T19:38:04.792Z,20.90
2022-11-28T19:53:06.702Z,21.17
2022-11-28T20:08:08.721Z,23.37
2022-11-28T20:23:12.702Z,23.20
2022-11-28T20:38:14.589Z,27.87
2022-11-28T20:53:16.377Z,22.90
2022-11-28T21:08:18.245Z,25.53
2022-11-28T21:23:20.045Z,20.80
2022-11-28T21:38:22.064Z,20.60
2022-11-28T21:53:23.877Z,18.93
2022-11-28T22:08:25.701Z,17.40
2022-11-28T22:23:27.470Z,16.90
2022-11-28T22:38:29.392Z,16.60
2022-11-28T22:53:31.273Z,16.17
2022-11-28T23:08:33.786Z,14.47
2022-11-28T23:23:36.145Z,15.23
2022-11-28T23:38:38.094Z,14.63
2022-11-28T23:53:41.123Z,14.97
